Festivo — EAEQ — position and weather

sailwx.info

Track history (hours):
 
Tides and Currents Weather Stations Pressure Air Temp Water Temp Dewpoint Dewpoint Depression Visibility Wind Speed Wind Dir Waves Ship Positions

Festivo

Last reported at 2016-Jul-26 09:23 UTC. Time now 2016-Jul-27 05:49 UTC.
Position N 35°57' W 005°15'.

Length 136 m; draft 4.5 m.

Type: Cargo ship. MMSI: 225410000.

Date/timePositionNaut miles runAvg speedWind from/ knotsBaromVisibWave heightAir tempDewpointWater temp
2016-Jul-26 09:23N 35°57' W 005°15'5 5.3
2016-Jul-26 08:28N 35°54' W 005°19'0 0.0
2016-Jul-26 07:31N 35°54' W 005°19'0 0.0
2016-Jul-26 06:31N 35°54' W 005°19'0 0.0
2016-Jul-26 05:31N 35°54' W 005°19'0 0.3
2016-Jul-26 04:33N 35°54' W 005°19'6 5.9
2016-Jul-26 03:33N 35°57' W 005°13'  
2016-Jul-21 10:11N 36°01' W 005°11'711.8
2016-Jul-21 09:33N 35°55' W 005°17'2 2.2
2016-Jul-21 08:33N 35°54' W 005°19'0 0.0
2016-Jul-21 07:33N 35°54' W 005°19'1 0.7
2016-Jul-21 06:33N 35°54' W 005°19'66 8.9
2016-Jul-20 23:08N 36°30' W 004°10'0 0.0
2016-Jul-20 22:18N 36°30' W 004°10'0 0.0
2016-Jul-20 21:28N 36°30' W 004°10'65 1.8
2016-Jul-19 10:18N 35°55' W 005°18'3 4.3
2016-Jul-19 09:33N 35°57' W 005°16'4 4.4
2016-Jul-19 08:32N 35°54' W 005°19'0 0.0
2016-Jul-19 07:32N 35°54' W 005°19'  
Track history (hours):
 
Tides and Currents Weather Stations Pressure Air Temp Water Temp Dewpoint Dewpoint Depression Visibility Wind Speed Wind Dir Waves Ship Positions

Festivo

Last reported at 2016-Jul-26 09:23 UTC. Time now 2016-Jul-27 05:49 UTC.
Position N 35°57' W 005°15'.

Length 136 m; draft 4.5 m.

Type: Cargo ship. MMSI: 225410000.

Date/timePositionNaut miles runAvg speedWind from/ knotsBaromVisibWave heightAir tempDewpointWater temp
2016-Jul-26 09:23N 35°57' W 005°15'5 5.3
2016-Jul-26 08:28N 35°54' W 005°19'0 0.0
2016-Jul-26 07:31N 35°54' W 005°19'0 0.0
2016-Jul-26 06:31N 35°54' W 005°19'0 0.0
2016-Jul-26 05:31N 35°54' W 005°19'0 0.3
2016-Jul-26 04:33N 35°54' W 005°19'6 5.9
2016-Jul-26 03:33N 35°57' W 005°13'  
2016-Jul-21 10:11N 36°01' W 005°11'711.8
2016-Jul-21 09:33N 35°55' W 005°17'2 2.2
2016-Jul-21 08:33N 35°54' W 005°19'0 0.0
2016-Jul-21 07:33N 35°54' W 005°19'1 0.7
2016-Jul-21 06:33N 35°54' W 005°19'66 8.9
2016-Jul-20 23:08N 36°30' W 004°10'0 0.0
2016-Jul-20 22:18N 36°30' W 004°10'0 0.0
2016-Jul-20 21:28N 36°30' W 004°10'65 1.8
2016-Jul-19 10:18N 35°55' W 005°18'3 4.3
2016-Jul-19 09:33N 35°57' W 005°16'4 4.4
2016-Jul-19 08:32N 35°54' W 005°19'0 0.0
2016-Jul-19 07:32N 35°54' W 005°19'  

Dump ship's entire track history